Strona główna
METAR-TAF:

METAR-TAF

Lotnisko :

Port lotniczy Skiathos

Skiathos, Grecja

Szerokość geograficzna: 39-11N, Długość geograficzna: 023-30E, wysokość: 15 m

Aktualna obserwacja pogody

Raport powstał 34 minut temu, godzina 11:50 UTC
Cisza
Temperatura 14°C
Wilgotność 67%
Ciśnienie 1016 hPa
Widzialność 10 km lub więcej
Mało chmury na wysokości 2000 ft

METAR: LGSK 031150Z 00000KT 9999 FEW020 14/08 Q1016

czas: 15:24 (12:24 UTC)

Prognoza

Raport powstał 1 godzina i 24 minut temu, godzina 11:00 UTC
Prognoza ważna od 03 godzina 12 UTC do 03 godzina 21 UTC
Wiatr 10 kt od wschód
Widzialność 10 km lub więcej
Mało chmury na wysokości 1800 ft
Rozproszone chmury na wysokości 2500 ft
Prawdopodobieństwo 30% :
Przejściowo
od 03 godzina 15 UTC do 03 godzina 21 UTC
Widzialność: 5000 m
Rozproszone chmury na wysokości 1800 ft
Przerywane chmury na wysokości 2500 ft
deszcz

TAF: LGSK 031100Z 0312/0321 09010KT 9999 FEW018 SCT025 PROB30 TEMPO 0315/0321 5000 RA SCT018 BKN025

Obserwacja i prognoza pogody dla ponad 4000 lotnisk (raport METAR i TAF).

Dostępne stacje oznaczono żółtymi i czerwonymi punktami na mapie.

Najedź kursorem aby zobaczyć nazwę stacji.

Kliknij aby zobaczyć obserwacje i prognozy pogody.

Aby zmienić mapę: kliknij na zielony przycisk z czarnym krzyżykiem, aby powiększyć; na zielony przycisk z myślnikiem, aby pomniejszyć; na zielone strzałki, aby przejść do map sąsiednich.


METAR-TAF: